Springfield, IL

9:22 PM CDT on July 24, 2016 (GMT -0500)
Stratford Place | | Change Station

Elev 591 ft 39.77 °N, 89.62 °W | Updated 29 seconds ago

Thunderstorm
Thunderstorm
86.9 °F
Feels Like 107 °F
N
1.3
Wind Variable Wind from SSW
Gusts 2.5 mph

Today
High -- | Low -- °F
--% Chance of Precip.
Yesterday
High -- | Low -- °F
Precip. -- in
Pressure 29.88 in
Visibility 10.0 miles
Clouds Few 4400 ft
Heat Index 107 °F
Dew Point 83 °F
Humidity 88%
Rainfall 0.00 in
Snow Depth Not available.
5:50 AM 8:18 PM
Waning Gibbous, 71% visible
SPECI KSPI 250207Z 19010KT 10SM TS FEW044 31/27 A2988 RMK AO2 LTG DSNT ALQDS TSB01 T03110267
Pressure 29.88 in
Visibility 10.0 miles
Clouds Few 4400 ft
Heat Index 107 °F
Dew Point 83 °F
Humidity 88%
Rainfall 0.00 in
Snow Depth Not available.
5:50 AM 8:18 PM
Waning Gibbous, 71% visible
SPECI KSPI 250207Z 19010KT 10SM TS FEW044 31/27 A2988 RMK AO2 LTG DSNT ALQDS TSB01 T03110267

10-Day Weather Forecast

Almanac

Astronomy

Jul. 24, 2016 Rise Set
Actual Time
Civil Twilight
Nautical Twilight
Astronomical Twilight
Moon
Length of Visible Light
Length of Day
Tomorrow will be .
, % of the Moon is Illuminated

Today's Extremes

State Highs State Lows

Community

WunderPhotos

Upload Photos

1,927,242 photos uploaded!

WunderBlog® & News

Nearby

Air Quality

  Air Quality AQ Index Pollutant
Not available.

Snow Depth

Station Depth Elevation

Earthquake Activity

City Distance Mag. Time & Date
Minimum magnitude displayed is 2.5.

Coastal Water Temperatures

Place Temperature

Stations

Nearby Weather Stations

Station Location Temp. Windchill Dew Point Humidity Wind Precip. Elev Updated Type
                   

Watches & Warnings

There are currently no watches in effect.